Time;durP1;ratioP1;P1;durP2;ratioP2;P2;SDS_P1;SDS_P2;PMS_P1;PMS_P2;Temp;Humidity;BMP_temperature;BMP_pressure;BME280_temperature;BME280_humidity;BME280_pressure;Samples;Min_cycle;Max_cycle;Signal;HPM_P1;HPM_P2
2021/10/26 00:04:36;;;;;;;62;71.4;;;;;;;1.1;81.8;99370;;;;
2021/10/26 00:14:36;;;;;;;62;71.4;;;;;;;1;81.7;99370;;;;
2021/10/26 00:24:36;;;;;;;62;71.4;;;;;;;0.9;81.2;99370;;;;
2021/10/26 00:34:36;;;;;;;40.2;50.8;;;;;;;0.9;81.5;99360;;;;
2021/10/26 00:44:36;;;;;;;40.2;50.8;;;;;;;0.7;80.7;99350;;;;
2021/10/26 00:54:36;;;;;;;40.2;50.8;;;;;;;0.5;80.5;99360;;;;
2021/10/26 01:04:36;;;;;;;33.3;41.1;;;;;;;0.2;80.7;99350;;;;
2021/10/26 01:14:36;;;;;;;33.3;41.1;;;;;;;0.4;81.7;99350;;;;
2021/10/26 01:24:36;;;;;;;33.3;41.1;;;;;;;0.3;81.3;99360;;;;
2021/10/26 01:34:36;;;;;;;28.7;35.1;;;;;;;0.2;81.3;99360;;;;
2021/10/26 01:44:36;;;;;;;28.7;35.1;;;;;;;0.1;81;99350;;;;
2021/10/26 01:54:37;;;;;;;28.7;35.1;;;;;;;0.2;81.6;99350;;;;
2021/10/26 02:05:36;;;;;;;34.7;40.9;;;;;;;0.1;80.9;99360;;;;
2021/10/26 02:15:36;;;;;;;34.7;40.9;;;;;;;0;80.5;99350;;;;
2021/10/26 02:26:36;;;;;;;34.7;40.9;;;;;;;-0.2;80.6;99370;;;;
2021/10/26 02:36:36;;;;;;;42.5;51.6;;;;;;;-0.4;80.5;99360;;;;
2021/10/26 02:46:36;;;;;;;42.5;51.6;;;;;;;-0.6;81.5;99370;;;;
2021/10/26 02:56:38;;;;;;;42.5;51.6;;;;;;;-0.6;80.6;99370;;;;
2021/10/26 03:07:36;;;;;;;48.4;60.4;;;;;;;-0.7;81;99380;;;;
2021/10/26 03:17:36;;;;;;;48.4;60.4;;;;;;;-0.7;80.9;99380;;;;
2021/10/26 03:27:36;;;;;;;48.4;60.4;;;;;;;-0.8;80.9;99390;;;;
2021/10/26 03:38:37;;;;;;;45.9;57.7;;;;;;;-0.8;80.8;99390;;;;
2021/10/26 03:48:36;;;;;;;45.9;57.7;;;;;;;-0.9;81.3;99390;;;;
2021/10/26 03:58:38;;;;;;;45.9;57.7;;;;;;;-0.9;81;99390;;;;
2021/10/26 04:08:44;;;;;;;37.2;46.5;;;;;;;-0.9;81.6;99380;;;;
2021/10/26 04:19:36;;;;;;;37.2;46.5;;;;;;;-0.8;81.5;99380;;;;
2021/10/26 04:29:36;;;;;;;37.2;46.5;;;;;;;-0.7;82.3;99380;;;;
2021/10/26 04:39:36;;;;;;;34.2;43.5;;;;;;;-0.6;82.2;99380;;;;
2021/10/26 04:49:36;;;;;;;34.2;43.5;;;;;;;-0.4;82.4;99380;;;;
2021/10/26 05:00:36;;;;;;;40;44.8;;;;;;;-0.6;81.1;99380;;;;
2021/10/26 05:11:36;;;;;;;40;44.8;;;;;;;-0.6;81.2;99380;;;;
2021/10/26 05:21:36;;;;;;;40;44.8;;;;;;;-0.7;80.7;99390;;;;
2021/10/26 05:31:37;;;;;;;44.2;53.6;;;;;;;-0.8;80.6;99390;;;;
2021/10/26 05:41:36;;;;;;;44.2;53.6;;;;;;;-1;80.6;99390;;;;
2021/10/26 05:51:36;;;;;;;44.2;53.6;;;;;;;-0.8;80.5;99400;;;;
2021/10/26 06:01:36;;;;;;;52.4;63;;;;;;;-0.7;80.6;99410;;;;
2021/10/26 06:11:36;;;;;;;52.4;63;;;;;;;-0.5;80.5;99430;;;;
2021/10/26 06:21:36;;;;;;;52.4;63;;;;;;;-0.4;80;99440;;;;
2021/10/26 06:31:36;;;;;;;52.3;62.9;;;;;;;-0.2;80.1;99450;;;;
2021/10/26 06:41:36;;;;;;;52.3;62.9;;;;;;;-0.1;80;99460;;;;
2021/10/26 06:51:36;;;;;;;52.3;62.9;;;;;;;0.4;80.3;99460;;;;
2021/10/26 07:02:36;;;;;;;51.1;66.4;;;;;;;0.9;79.9;99460;;;;
2021/10/26 07:12:36;;;;;;;51.1;66.4;;;;;;;1.5;79.9;99460;;;;
2021/10/26 07:23:36;;;;;;;51.1;66.4;;;;;;;2.3;79.9;99480;;;;
2021/10/26 07:33:36;;;;;;;49;61.5;;;;;;;3.1;79.7;99460;;;;
2021/10/26 07:43:36;;;;;;;49;61.5;;;;;;;3.8;77.8;99450;;;;
2021/10/26 07:53:36;;;;;;;49;61.5;;;;;;;4.7;77.3;99450;;;;
2021/10/26 08:03:38;;;;;;;43.8;53.4;;;;;;;5.6;75.2;99440;;;;
2021/10/26 08:13:36;;;;;;;43.8;53.4;;;;;;;6.2;73.2;99440;;;;
2021/10/26 08:23:36;;;;;;;43.8;53.4;;;;;;;6.7;70.8;99450;;;;
2021/10/26 08:33:41;;;;;;;36;40.6;;;;;;;7.1;69.9;99440;;;;
2021/10/26 08:43:36;;;;;;;36;40.6;;;;;;;7.6;68.3;99440;;;;
2021/10/26 08:53:36;;;;;;;36;40.6;;;;;;;7.9;64.5;99450;;;;
2021/10/26 09:03:37;;;;;;;30.5;36.4;;;;;;;8.6;63.1;99440;;;;
2021/10/26 09:23:36;;;;;;;30.5;36.4;;;;;;;9.8;61.8;99440;;;;
2021/10/26 09:33:36;;;;;;;22.4;28.7;;;;;;;10.3;58.1;99440;;;;
2021/10/26 09:43:36;;;;;;;22.4;28.7;;;;;;;11.1;57.7;99430;;;;
2021/10/26 09:53:36;;;;;;;22.4;28.7;;;;;;;11.3;55;99430;;;;
2021/10/26 10:03:36;;;;;;;18.1;23.6;;;;;;;12;52.8;99420;;;;
2021/10/26 10:13:36;;;;;;;18.1;23.6;;;;;;;12.2;50.4;99410;;;;
2021/10/26 10:23:36;;;;;;;18.1;23.6;;;;;;;12.6;48.2;99390;;;;
2021/10/26 10:33:36;;;;;;;12;15.2;;;;;;;13.4;48.2;99390;;;;
2021/10/26 10:43:36;;;;;;;12;15.2;;;;;;;13.9;45.8;99370;;;;
2021/10/26 10:53:36;;;;;;;12;15.2;;;;;;;14;46.5;99360;;;;
2021/10/26 11:03:36;;;;;;;13.3;19.6;;;;;;;14.3;45.3;99350;;;;
2021/10/26 11:13:36;;;;;;;13.3;19.6;;;;;;;14.4;44.9;99340;;;;
2021/10/26 11:23:36;;;;;;;13.3;19.6;;;;;;;14.2;42.8;99320;;;;
2021/10/26 11:33:38;;;;;;;22.7;26.8;;;;;;;14.6;45.4;99320;;;;
2021/10/26 11:43:36;;;;;;;22.7;26.8;;;;;;;14.5;40.6;99310;;;;
2021/10/26 11:53:36;;;;;;;22.7;26.8;;;;;;;14.4;42.7;99310;;;;
2021/10/26 12:04:36;;;;;;;9.1;14.2;;;;;;;14.5;42.1;99300;;;;
2021/10/26 12:14:36;;;;;;;9.1;14.2;;;;;;;14.8;42.8;99290;;;;
2021/10/26 12:24:36;;;;;;;9.1;14.2;;;;;;;14.9;41.8;99290;;;;
2021/10/26 12:34:36;;;;;;;8.8;14.6;;;;;;;14.9;41.5;99290;;;;
2021/10/26 12:45:36;;;;;;;8.8;14.6;;;;;;;14.8;45.5;99280;;;;
2021/10/26 12:55:36;;;;;;;8.8;14.6;;;;;;;14.8;45.9;99270;;;;
2021/10/26 13:05:38;;;;;;;7.5;10.1;;;;;;;14.6;43.9;99270;;;;
2021/10/26 13:15:38;;;;;;;7.5;10.1;;;;;;;14.6;42.7;99280;;;;
2021/10/26 13:25:36;;;;;;;7.5;10.1;;;;;;;14.3;45.1;99270;;;;
2021/10/26 13:35:36;;;;;;;9.3;14;;;;;;;14.3;45;99280;;;;
2021/10/26 13:45:39;;;;;;;9.3;14;;;;;;;14.1;45.5;99280;;;;
2021/10/26 13:56:36;;;;;;;9.3;14;;;;;;;14;45.7;99280;;;;
2021/10/26 14:06:36;;;;;;;10;14.6;;;;;;;14;47;99280;;;;
2021/10/26 14:16:36;;;;;;;10;14.6;;;;;;;14;47;99290;;;;
2021/10/26 14:26:36;;;;;;;10;14.6;;;;;;;13.5;48.5;99290;;;;
2021/10/26 14:36:50;;;;;;;10.6;15.8;;;;;;;13;49.2;99290;;;;
2021/10/26 14:56:38;;;;;;;10.6;15.8;;;;;;;11.9;51.9;99280;;;;
2021/10/26 15:07:36;;;;;;;10.8;15.2;;;;;;;11.2;54.1;99300;;;;
2021/10/26 15:17:36;;;;;;;10.8;15.2;;;;;;;10.5;55.3;99300;;;;
2021/10/26 15:37:36;;;;;;;11.8;14.1;;;;;;;9.4;57.6;99320;;;;
2021/10/26 15:47:36;;;;;;;11.8;14.1;;;;;;;8.9;59.2;99330;;;;
2021/10/26 15:57:36;;;;;;;11.8;14.1;;;;;;;8.4;60.9;99350;;;;
2021/10/26 16:07:39;;;;;;;23.1;27.1;;;;;;;8;62.6;99370;;;;
2021/10/26 16:17:36;;;;;;;23.1;27.1;;;;;;;7.7;64.7;99360;;;;
2021/10/26 16:27:37;;;;;;;23.1;27.1;;;;;;;7.4;65.1;99360;;;;
2021/10/26 16:37:37;;;;;;;40.9;58.1;;;;;;;7.3;66.6;99370;;;;
2021/10/26 16:47:36;;;;;;;40.9;58.1;;;;;;;7.1;67;99380;;;;
2021/10/26 16:57:36;;;;;;;40.9;58.1;;;;;;;7.3;68.2;99390;;;;
2021/10/26 17:07:36;;;;;;;39.3;46.9;;;;;;;7.4;67.5;99380;;;;
2021/10/26 17:17:36;;;;;;;39.3;46.9;;;;;;;7.6;68.1;99410;;;;
2021/10/26 17:27:36;;;;;;;39.3;46.9;;;;;;;7.8;67.8;99410;;;;
2021/10/26 17:37:37;;;;;;;28.1;34.4;;;;;;;7.9;67.6;99430;;;;
2021/10/26 17:47:36;;;;;;;28.1;34.4;;;;;;;8;68.6;99430;;;;
2021/10/26 17:57:36;;;;;;;28.1;34.4;;;;;;;8.2;68.5;99430;;;;
2021/10/26 18:07:37;;;;;;;37.1;50.5;;;;;;;8.3;67.7;99430;;;;
2021/10/26 18:18:36;;;;;;;37.1;50.5;;;;;;;8.2;68;99440;;;;
2021/10/26 18:28:36;;;;;;;35.4;43;;;;;;;8.1;67.9;99450;;;;
2021/10/26 18:38:37;;;;;;;35.4;43;;;;;;;8;67.9;99450;;;;
2021/10/26 18:48:36;;;;;;;35.4;43;;;;;;;7.7;68.6;99450;;;;
2021/10/26 18:58:36;;;;;;;35.6;42;;;;;;;7.6;69.8;99460;;;;
2021/10/26 19:08:36;;;;;;;35.6;42;;;;;;;7.5;70.5;99460;;;;
2021/10/26 19:18:36;;;;;;;35.6;42;;;;;;;7.4;70.7;99460;;;;
2021/10/26 19:28:36;;;;;;;38.2;43;;;;;;;7.3;71.1;99470;;;;
2021/10/26 19:38:37;;;;;;;38.2;43;;;;;;;7.2;71.3;99490;;;;
2021/10/26 19:48:36;;;;;;;38.2;43;;;;;;;7;72.3;99490;;;;
2021/10/26 19:58:36;;;;;;;41.1;49.4;;;;;;;6.9;71.9;99500;;;;
2021/10/26 20:08:36;;;;;;;41.1;49.4;;;;;;;6.8;72.3;99520;;;;
2021/10/26 20:18:36;;;;;;;41.1;49.4;;;;;;;6.5;72.4;99540;;;;
2021/10/26 20:28:37;;;;;;;48.4;54.9;;;;;;;6.3;73.1;99550;;;;
2021/10/26 20:38:36;;;;;;;48.4;54.9;;;;;;;6;73.4;99560;;;;
2021/10/26 20:48:36;;;;;;;48.4;54.9;;;;;;;5.9;75.1;99570;;;;
2021/10/26 20:58:36;;;;;;;54.9;63.7;;;;;;;6;76.2;99570;;;;
2021/10/26 21:08:36;;;;;;;54.9;63.7;;;;;;;6.1;75.6;99580;;;;
2021/10/26 21:18:36;;;;;;;54.9;63.7;;;;;;;6;76;99570;;;;
2021/10/26 21:28:36;;;;;;;48.5;59;;;;;;;6.3;75.9;99570;;;;
2021/10/26 21:38:36;;;;;;;48.5;59;;;;;;;6.5;75.1;99570;;;;
2021/10/26 21:48:36;;;;;;;48.5;59;;;;;;;6.4;74.4;99580;;;;
2021/10/26 21:58:37;;;;;;;47.1;55.7;;;;;;;6.2;74.4;99580;;;;
2021/10/26 22:08:36;;;;;;;47.1;55.7;;;;;;;6;75.8;99560;;;;
2021/10/26 22:18:39;;;;;;;47.1;55.7;;;;;;;6;75.1;99570;;;;
2021/10/26 22:28:36;;;;;;;53.4;62.4;;;;;;;6.2;75.8;99570;;;;
2021/10/26 22:38:36;;;;;;;53.4;62.4;;;;;;;6.2;75.5;99570;;;;
2021/10/26 22:48:36;;;;;;;53.4;62.4;;;;;;;6.2;74.8;99570;;;;
2021/10/26 22:58:36;;;;;;;51.2;67.9;;;;;;;6.2;74.9;99580;;;;
2021/10/26 23:09:36;;;;;;;51.2;67.9;;;;;;;6.3;74.8;99590;;;;
2021/10/26 23:19:37;;;;;;;51.2;67.9;;;;;;;6.5;74.8;99580;;;;
2021/10/26 23:29:36;;;;;;;48.1;59.8;;;;;;;6.5;74;99570;;;;
2021/10/26 23:39:37;;;;;;;48.1;59.8;;;;;;;6.2;73.8;99570;;;;
2021/10/26 23:49:36;;;;;;;48.1;59.8;;;;;;;6;74.1;99570;;;;
2021/10/26 23:59:36;;;;;;;40.9;46.4;;;;;;;5.8;74.2;99590;;;;
